sensor_id;sensor_type;location;lat;lon;timestamp;P1;durP1;ratioP1;P2;durP2;ratioP2
18296;SDS011;18066;52.106;5.534;2022-10-13T00:00:29;15.10;;;7.73;;
18296;SDS011;18066;52.106;5.534;2022-10-13T00:02:58;17.67;;;8.60;;
18296;SDS011;18066;52.106;5.534;2022-10-13T00:05:26;15.87;;;9.13;;
18296;SDS011;18066;52.106;5.534;2022-10-13T00:07:53;14.67;;;8.50;;
18296;SDS011;18066;52.106;5.534;2022-10-13T00:10:19;16.83;;;8.77;;
18296;SDS011;18066;52.106;5.534;2022-10-13T00:12:46;16.77;;;8.67;;
18296;SDS011;18066;52.106;5.534;2022-10-13T00:15:15;16.27;;;9.03;;
18296;SDS011;18066;52.106;5.534;2022-10-13T00:17:42;16.30;;;8.47;;
18296;SDS011;18066;52.106;5.534;2022-10-13T00:20:10;16.67;;;8.83;;
18296;SDS011;18066;52.106;5.534;2022-10-13T00:22:37;17.57;;;8.83;;
18296;SDS011;18066;52.106;5.534;2022-10-13T00:25:04;12.70;;;8.43;;
18296;SDS011;18066;52.106;5.534;2022-10-13T00:27:32;16.73;;;8.47;;
18296;SDS011;18066;52.106;5.534;2022-10-13T00:29:59;16.80;;;8.73;;
18296;SDS011;18066;52.106;5.534;2022-10-13T00:32:27;16.97;;;8.90;;
18296;SDS011;18066;52.106;5.534;2022-10-13T00:34:55;15.70;;;8.87;;
18296;SDS011;18066;52.106;5.534;2022-10-13T00:37:22;14.67;;;8.40;;
18296;SDS011;18066;52.106;5.534;2022-10-13T00:39:49;15.07;;;8.43;;
18296;SDS011;18066;52.106;5.534;2022-10-13T00:42:16;17.60;;;9.30;;
18296;SDS011;18066;52.106;5.534;2022-10-13T00:45:00;18.43;;;9.73;;
18296;SDS011;18066;52.106;5.534;2022-10-13T00:47:32;18.57;;;9.80;;
18296;SDS011;18066;52.106;5.534;2022-10-13T00:50:03;15.63;;;9.47;;
18296;SDS011;18066;52.106;5.534;2022-10-13T00:52:31;19.27;;;9.50;;
18296;SDS011;18066;52.106;5.534;2022-10-13T00:54:59;15.90;;;8.70;;
18296;SDS011;18066;52.106;5.534;2022-10-13T00:57:28;16.37;;;9.17;;
18296;SDS011;18066;52.106;5.534;2022-10-13T00:59:55;17.27;;;9.50;;
18296;SDS011;18066;52.106;5.534;2022-10-13T01:02:23;19.60;;;9.23;;
18296;SDS011;18066;52.106;5.534;2022-10-13T01:04:57;16.63;;;10.07;;
18296;SDS011;18066;52.106;5.534;2022-10-13T01:07:26;14.67;;;9.47;;
18296;SDS011;18066;52.106;5.534;2022-10-13T01:09:53;12.80;;;8.37;;
18296;SDS011;18066;52.106;5.534;2022-10-13T01:12:24;16.07;;;9.37;;
18296;SDS011;18066;52.106;5.534;2022-10-13T01:15:02;15.57;;;9.40;;
18296;SDS011;18066;52.106;5.534;2022-10-13T01:17:36;20.53;;;9.60;;
18296;SDS011;18066;52.106;5.534;2022-10-13T01:20:29;17.20;;;9.43;;
18296;SDS011;18066;52.106;5.534;2022-10-13T01:23:37;19.30;;;9.77;;
18296;SDS011;18066;52.106;5.534;2022-10-13T01:26:33;17.10;;;9.33;;
18296;SDS011;18066;52.106;5.534;2022-10-13T01:32:25;16.63;;;9.07;;
18296;SDS011;18066;52.106;5.534;2022-10-13T01:34:58;17.30;;;9.13;;
18296;SDS011;18066;52.106;5.534;2022-10-13T01:37:33;20.97;;;10.17;;
18296;SDS011;18066;52.106;5.534;2022-10-13T01:40:09;21.47;;;10.03;;
18296;SDS011;18066;52.106;5.534;2022-10-13T01:42:42;18.43;;;10.27;;
18296;SDS011;18066;52.106;5.534;2022-10-13T01:45:15;15.23;;;10.20;;
18296;SDS011;18066;52.106;5.534;2022-10-13T01:47:45;20.10;;;10.10;;
18296;SDS011;18066;52.106;5.534;2022-10-13T01:50:14;19.00;;;10.27;;
18296;SDS011;18066;52.106;5.534;2022-10-13T01:52:43;17.03;;;9.60;;
18296;SDS011;18066;52.106;5.534;2022-10-13T01:55:12;16.20;;;9.87;;
18296;SDS011;18066;52.106;5.534;2022-10-13T01:57:39;18.73;;;10.40;;
18296;SDS011;18066;52.106;5.534;2022-10-13T02:00:08;17.50;;;10.00;;
18296;SDS011;18066;52.106;5.534;2022-10-13T02:02:39;24.13;;;10.83;;
18296;SDS011;18066;52.106;5.534;2022-10-13T02:05:16;16.10;;;9.87;;
18296;SDS011;18066;52.106;5.534;2022-10-13T02:07:49;16.50;;;9.27;;
18296;SDS011;18066;52.106;5.534;2022-10-13T02:10:25;18.70;;;10.40;;
18296;SDS011;18066;52.106;5.534;2022-10-13T02:12:57;16.57;;;8.90;;
18296;SDS011;18066;52.106;5.534;2022-10-13T02:15:27;18.83;;;9.70;;
18296;SDS011;18066;52.106;5.534;2022-10-13T02:17:57;19.30;;;10.30;;
18296;SDS011;18066;52.106;5.534;2022-10-13T02:20:28;17.37;;;9.17;;
18296;SDS011;18066;52.106;5.534;2022-10-13T02:22:59;15.27;;;9.50;;
18296;SDS011;18066;52.106;5.534;2022-10-13T02:25:29;13.97;;;8.53;;
18296;SDS011;18066;52.106;5.534;2022-10-13T02:27:58;17.07;;;9.67;;
18296;SDS011;18066;52.106;5.534;2022-10-13T02:30:27;20.20;;;10.20;;
18296;SDS011;18066;52.106;5.534;2022-10-13T02:32:57;15.30;;;9.73;;
18296;SDS011;18066;52.106;5.534;2022-10-13T02:35:24;19.80;;;10.60;;
18296;SDS011;18066;52.106;5.534;2022-10-13T02:37:53;17.83;;;9.30;;
18296;SDS011;18066;52.106;5.534;2022-10-13T02:40:19;14.07;;;9.20;;
18296;SDS011;18066;52.106;5.534;2022-10-13T02:42:46;16.93;;;8.97;;
18296;SDS011;18066;52.106;5.534;2022-10-13T02:45:13;14.67;;;8.87;;
18296;SDS011;18066;52.106;5.534;2022-10-13T02:47:40;14.63;;;9.13;;
18296;SDS011;18066;52.106;5.534;2022-10-13T02:50:07;15.57;;;8.90;;
18296;SDS011;18066;52.106;5.534;2022-10-13T02:52:35;18.17;;;9.97;;
18296;SDS011;18066;52.106;5.534;2022-10-13T02:55:04;17.80;;;9.30;;
18296;SDS011;18066;52.106;5.534;2022-10-13T02:57:31;16.40;;;9.50;;
18296;SDS011;18066;52.106;5.534;2022-10-13T02:59:58;15.53;;;8.90;;
18296;SDS011;18066;52.106;5.534;2022-10-13T03:02:26;20.77;;;10.03;;
18296;SDS011;18066;52.106;5.534;2022-10-13T03:04:53;16.97;;;9.47;;
18296;SDS011;18066;52.106;5.534;2022-10-13T03:07:20;15.97;;;9.43;;
18296;SDS011;18066;52.106;5.534;2022-10-13T03:09:47;21.13;;;12.43;;
18296;SDS011;18066;52.106;5.534;2022-10-13T03:12:15;17.40;;;10.37;;
18296;SDS011;18066;52.106;5.534;2022-10-13T03:14:42;17.30;;;9.50;;
18296;SDS011;18066;52.106;5.534;2022-10-13T03:17:09;15.80;;;9.03;;
18296;SDS011;18066;52.106;5.534;2022-10-13T03:19:36;15.43;;;9.23;;
18296;SDS011;18066;52.106;5.534;2022-10-13T03:22:03;19.37;;;10.40;;
18296;SDS011;18066;52.106;5.534;2022-10-13T03:24:31;16.67;;;9.77;;
18296;SDS011;18066;52.106;5.534;2022-10-13T03:26:58;15.30;;;10.03;;
18296;SDS011;18066;52.106;5.534;2022-10-13T03:29:28;24.37;;;10.90;;
18296;SDS011;18066;52.106;5.534;2022-10-13T03:31:55;19.33;;;10.70;;
18296;SDS011;18066;52.106;5.534;2022-10-13T03:34:23;15.70;;;10.07;;
18296;SDS011;18066;52.106;5.534;2022-10-13T03:36:50;18.80;;;10.63;;
18296;SDS011;18066;52.106;5.534;2022-10-13T03:39:20;20.47;;;10.20;;
18296;SDS011;18066;52.106;5.534;2022-10-13T03:41:47;18.63;;;10.13;;
18296;SDS011;18066;52.106;5.534;2022-10-13T03:44:14;19.73;;;11.03;;
18296;SDS011;18066;52.106;5.534;2022-10-13T03:46:43;16.67;;;9.80;;
18296;SDS011;18066;52.106;5.534;2022-10-13T03:49:10;17.03;;;10.17;;
18296;SDS011;18066;52.106;5.534;2022-10-13T03:51:38;17.80;;;10.33;;
18296;SDS011;18066;52.106;5.534;2022-10-13T03:54:05;20.53;;;11.07;;
18296;SDS011;18066;52.106;5.534;2022-10-13T03:56:32;17.60;;;11.50;;
18296;SDS011;18066;52.106;5.534;2022-10-13T03:58:59;22.20;;;11.17;;
18296;SDS011;18066;52.106;5.534;2022-10-13T04:01:29;17.30;;;10.50;;
18296;SDS011;18066;52.106;5.534;2022-10-13T04:03:59;19.93;;;10.93;;
18296;SDS011;18066;52.106;5.534;2022-10-13T04:06:28;18.37;;;10.67;;
18296;SDS011;18066;52.106;5.534;2022-10-13T04:08:56;16.27;;;10.80;;
18296;SDS011;18066;52.106;5.534;2022-10-13T04:11:24;18.00;;;10.07;;
18296;SDS011;18066;52.106;5.534;2022-10-13T04:13:54;19.27;;;10.47;;
18296;SDS011;18066;52.106;5.534;2022-10-13T04:16:23;19.77;;;11.10;;
18296;SDS011;18066;52.106;5.534;2022-10-13T04:18:53;18.13;;;11.07;;
18296;SDS011;18066;52.106;5.534;2022-10-13T04:21:23;16.53;;;10.47;;
18296;SDS011;18066;52.106;5.534;2022-10-13T04:23:53;20.73;;;11.30;;
18296;SDS011;18066;52.106;5.534;2022-10-13T04:26:22;24.23;;;11.87;;
18296;SDS011;18066;52.106;5.534;2022-10-13T04:28:54;16.67;;;10.67;;
18296;SDS011;18066;52.106;5.534;2022-10-13T04:31:22;17.30;;;10.87;;
18296;SDS011;18066;52.106;5.534;2022-10-13T04:33:50;15.17;;;10.60;;
18296;SDS011;18066;52.106;5.534;2022-10-13T04:36:17;14.47;;;9.47;;
18296;SDS011;18066;52.106;5.534;2022-10-13T04:38:47;20.40;;;10.93;;
18296;SDS011;18066;52.106;5.534;2022-10-13T04:41:15;18.53;;;11.10;;
18296;SDS011;18066;52.106;5.534;2022-10-13T04:43:50;17.40;;;10.63;;
18296;SDS011;18066;52.106;5.534;2022-10-13T04:46:19;20.80;;;10.53;;
18296;SDS011;18066;52.106;5.534;2022-10-13T04:48:48;21.63;;;11.87;;
18296;SDS011;18066;52.106;5.534;2022-10-13T04:51:16;22.17;;;11.80;;
18296;SDS011;18066;52.106;5.534;2022-10-13T04:53:55;18.00;;;10.90;;
18296;SDS011;18066;52.106;5.534;2022-10-13T04:56:26;21.97;;;11.77;;
18296;SDS011;18066;52.106;5.534;2022-10-13T04:58:54;18.80;;;11.57;;
18296;SDS011;18066;52.106;5.534;2022-10-13T05:01:23;22.53;;;11.67;;
18296;SDS011;18066;52.106;5.534;2022-10-13T05:03:51;18.70;;;11.17;;
18296;SDS011;18066;52.106;5.534;2022-10-13T05:06:20;24.33;;;11.77;;
18296;SDS011;18066;52.106;5.534;2022-10-13T05:08:50;20.73;;;11.93;;
18296;SDS011;18066;52.106;5.534;2022-10-13T05:11:21;21.70;;;12.37;;
18296;SDS011;18066;52.106;5.534;2022-10-13T05:13:49;18.37;;;12.57;;
18296;SDS011;18066;52.106;5.534;2022-10-13T05:16:17;20.10;;;11.17;;
18296;SDS011;18066;52.106;5.534;2022-10-13T05:18:46;26.27;;;12.13;;
18296;SDS011;18066;52.106;5.534;2022-10-13T05:21:17;21.30;;;12.07;;
18296;SDS011;18066;52.106;5.534;2022-10-13T05:23:46;19.17;;;11.43;;
18296;SDS011;18066;52.106;5.534;2022-10-13T05:26:18;18.43;;;11.27;;
18296;SDS011;18066;52.106;5.534;2022-10-13T05:28:47;20.10;;;11.03;;
18296;SDS011;18066;52.106;5.534;2022-10-13T05:31:19;21.33;;;12.47;;
18296;SDS011;18066;52.106;5.534;2022-10-13T05:33:51;20.33;;;12.30;;
18296;SDS011;18066;52.106;5.534;2022-10-13T05:36:26;24.17;;;12.43;;
18296;SDS011;18066;52.106;5.534;2022-10-13T05:38:57;17.10;;;11.20;;
18296;SDS011;18066;52.106;5.534;2022-10-13T05:41:25;19.83;;;12.17;;
18296;SDS011;18066;52.106;5.534;2022-10-13T05:43:56;23.23;;;12.07;;
18296;SDS011;18066;52.106;5.534;2022-10-13T05:46:40;19.97;;;12.17;;
18296;SDS011;18066;52.106;5.534;2022-10-13T05:49:23;20.50;;;12.07;;
18296;SDS011;18066;52.106;5.534;2022-10-13T05:52:47;20.10;;;12.33;;
18296;SDS011;18066;52.106;5.534;2022-10-13T05:55:54;20.30;;;11.60;;
18296;SDS011;18066;52.106;5.534;2022-10-13T06:32:25;20.83;;;12.00;;
18296;SDS011;18066;52.106;5.534;2022-10-13T06:38:09;21.23;;;12.30;;
18296;SDS011;18066;52.106;5.534;2022-10-13T06:42:10;18.17;;;11.77;;
18296;SDS011;18066;52.106;5.534;2022-10-13T06:45:00;24.07;;;15.63;;
18296;SDS011;18066;52.106;5.534;2022-10-13T06:48:10;28.77;;;11.97;;
18296;SDS011;18066;52.106;5.534;2022-10-13T06:51:16;26.60;;;13.10;;
18296;SDS011;18066;52.106;5.534;2022-10-13T07:09:50;28.20;;;13.10;;
18296;SDS011;18066;52.106;5.534;2022-10-13T07:18:06;26.60;;;13.77;;
18296;SDS011;18066;52.106;5.534;2022-10-13T07:24:24;24.07;;;14.27;;
18296;SDS011;18066;52.106;5.534;2022-10-13T08:06:25;27.23;;;17.17;;
18296;SDS011;18066;52.106;5.534;2022-10-13T08:09:33;29.83;;;16.73;;
18296;SDS011;18066;52.106;5.534;2022-10-13T08:13:04;29.87;;;17.73;;
18296;SDS011;18066;52.106;5.534;2022-10-13T08:26:28;34.83;;;18.87;;
18296;SDS011;18066;52.106;5.534;2022-10-13T08:32:30;39.13;;;20.00;;
18296;SDS011;18066;52.106;5.534;2022-10-13T08:35:43;28.37;;;18.87;;
18296;SDS011;18066;52.106;5.534;2022-10-13T08:38:55;35.23;;;19.70;;
18296;SDS011;18066;52.106;5.534;2022-10-13T08:41:41;38.37;;;21.10;;
18296;SDS011;18066;52.106;5.534;2022-10-13T08:44:34;33.67;;;19.47;;
18296;SDS011;18066;52.106;5.534;2022-10-13T08:47:27;34.33;;;18.73;;
18296;SDS011;18066;52.106;5.534;2022-10-13T08:50:25;33.23;;;18.30;;
18296;SDS011;18066;52.106;5.534;2022-10-13T09:03:26;31.73;;;17.50;;
18296;SDS011;18066;52.106;5.534;2022-10-13T09:06:44;30.43;;;18.50;;
18296;SDS011;18066;52.106;5.534;2022-10-13T09:09:16;28.93;;;17.03;;
18296;SDS011;18066;52.106;5.534;2022-10-13T09:12:02;27.30;;;17.20;;
18296;SDS011;18066;52.106;5.534;2022-10-13T09:14:39;27.92;;;16.58;;
18296;SDS011;18066;52.106;5.534;2022-10-13T09:17:42;24.20;;;14.60;;
18296;SDS011;18066;52.106;5.534;2022-10-13T09:20:34;28.67;;;14.33;;
18296;SDS011;18066;52.106;5.534;2022-10-13T09:26:20;27.13;;;14.13;;
18296;SDS011;18066;52.106;5.534;2022-10-13T09:28:54;23.70;;;12.33;;
18296;SDS011;18066;52.106;5.534;2022-10-13T09:33:55;22.77;;;13.20;;
18296;SDS011;18066;52.106;5.534;2022-10-13T09:35:16;18.13;;;11.87;;
18296;SDS011;18066;52.106;5.534;2022-10-13T09:38:23;21.27;;;13.03;;
18296;SDS011;18066;52.106;5.534;2022-10-13T09:41:20;25.00;;;12.40;;
18296;SDS011;18066;52.106;5.534;2022-10-13T09:44:13;24.33;;;12.30;;
18296;SDS011;18066;52.106;5.534;2022-10-13T09:47:24;20.43;;;12.37;;
18296;SDS011;18066;52.106;5.534;2022-10-13T09:57:33;22.53;;;12.13;;
18296;SDS011;18066;52.106;5.534;2022-10-13T10:00:23;22.92;;;11.15;;
18296;SDS011;18066;52.106;5.534;2022-10-13T10:03:30;19.20;;;10.70;;
18296;SDS011;18066;52.106;5.534;2022-10-13T10:06:20;18.27;;;9.97;;
18296;SDS011;18066;52.106;5.534;2022-10-13T10:09:40;28.27;;;11.98;;
18296;SDS011;18066;52.106;5.534;2022-10-13T10:12:57;24.08;;;12.18;;
18296;SDS011;18066;52.106;5.534;2022-10-13T10:22:54;21.73;;;12.25;;
18296;SDS011;18066;52.106;5.534;2022-10-13T10:26:14;25.70;;;12.55;;
18296;SDS011;18066;52.106;5.534;2022-10-13T10:32:53;22.15;;;12.07;;
18296;SDS011;18066;52.106;5.534;2022-10-13T10:36:20;19.45;;;11.27;;
18296;SDS011;18066;52.106;5.534;2022-10-13T10:45:44;20.33;;;13.27;;
18296;SDS011;18066;52.106;5.534;2022-10-13T11:13:46;22.67;;;11.73;;
18296;SDS011;18066;52.106;5.534;2022-10-13T11:16:35;18.88;;;11.10;;
18296;SDS011;18066;52.106;5.534;2022-10-13T11:19:53;24.73;;;11.05;;
18296;SDS011;18066;52.106;5.534;2022-10-13T11:43:23;22.00;;;13.40;;
18296;SDS011;18066;52.106;5.534;2022-10-13T11:46:34;24.80;;;12.55;;
18296;SDS011;18066;52.106;5.534;2022-10-13T11:52:44;21.67;;;12.35;;
18296;SDS011;18066;52.106;5.534;2022-10-13T12:02:30;24.92;;;12.52;;
18296;SDS011;18066;52.106;5.534;2022-10-13T12:05:41;21.50;;;11.43;;
18296;SDS011;18066;52.106;5.534;2022-10-13T12:12:02;21.60;;;12.02;;
18296;SDS011;18066;52.106;5.534;2022-10-13T12:31:15;21.40;;;12.15;;
18296;SDS011;18066;52.106;5.534;2022-10-13T12:55:11;27.55;;;12.98;;
18296;SDS011;18066;52.106;5.534;2022-10-13T12:58:05;19.38;;;11.80;;
18296;SDS011;18066;52.106;5.534;2022-10-13T13:04:30;18.90;;;12.43;;
18296;SDS011;18066;52.106;5.534;2022-10-13T13:09:04;19.50;;;12.35;;
18296;SDS011;18066;52.106;5.534;2022-10-13T13:21:06;21.55;;;13.43;;
18296;SDS011;18066;52.106;5.534;2022-10-13T13:23:46;21.83;;;12.65;;
18296;SDS011;18066;52.106;5.534;2022-10-13T13:26:38;21.17;;;13.73;;
18296;SDS011;18066;52.106;5.534;2022-10-13T13:48:56;26.50;;;13.75;;
18296;SDS011;18066;52.106;5.534;2022-10-13T13:52:21;20.58;;;13.10;;
18296;SDS011;18066;52.106;5.534;2022-10-13T14:01:53;21.67;;;13.43;;
18296;SDS011;18066;52.106;5.534;2022-10-13T14:10:56;17.52;;;12.80;;
18296;SDS011;18066;52.106;5.534;2022-10-13T14:13:42;19.45;;;12.38;;
18296;SDS011;18066;52.106;5.534;2022-10-13T14:49:37;16.75;;;11.90;;
18296;SDS011;18066;52.106;5.534;2022-10-13T14:53:04;22.05;;;13.15;;
18296;SDS011;18066;52.106;5.534;2022-10-13T15:51:22;19.65;;;12.38;;
18296;SDS011;18066;52.106;5.534;2022-10-13T15:57:30;21.00;;;13.10;;
18296;SDS011;18066;52.106;5.534;2022-10-13T16:06:42;18.98;;;13.55;;
18296;SDS011;18066;52.106;5.534;2022-10-13T16:12:53;23.20;;;12.95;;
18296;SDS011;18066;52.106;5.534;2022-10-13T16:16:15;20.58;;;13.75;;
18296;SDS011;18066;52.106;5.534;2022-10-13T16:19:08;22.40;;;13.27;;
18296;SDS011;18066;52.106;5.534;2022-10-13T16:22:08;27.23;;;15.18;;
18296;SDS011;18066;52.106;5.534;2022-10-13T16:31:09;20.13;;;14.18;;
18296;SDS011;18066;52.106;5.534;2022-10-13T16:37:19;28.15;;;14.88;;
18296;SDS011;18066;52.106;5.534;2022-10-13T16:40:10;20.50;;;14.32;;
18296;SDS011;18066;52.106;5.534;2022-10-13T16:43:29;21.00;;;14.65;;
18296;SDS011;18066;52.106;5.534;2022-10-13T16:46:29;26.33;;;18.50;;
18296;SDS011;18066;52.106;5.534;2022-10-13T16:49:33;27.67;;;19.15;;
18296;SDS011;18066;52.106;5.534;2022-10-13T16:52:25;22.67;;;16.60;;
18296;SDS011;18066;52.106;5.534;2022-10-13T16:55:17;21.45;;;15.60;;
18296;SDS011;18066;52.106;5.534;2022-10-13T16:58:19;27.55;;;16.52;;
18296;SDS011;18066;52.106;5.534;2022-10-13T17:01:27;21.38;;;15.80;;
18296;SDS011;18066;52.106;5.534;2022-10-13T17:07:52;27.90;;;16.15;;
18296;SDS011;18066;52.106;5.534;2022-10-13T17:10:53;22.23;;;16.85;;
18296;SDS011;18066;52.106;5.534;2022-10-13T17:14:19;27.75;;;18.83;;
18296;SDS011;18066;52.106;5.534;2022-10-13T17:20:14;28.63;;;19.77;;
18296;SDS011;18066;52.106;5.534;2022-10-13T17:47:50;29.05;;;21.10;;
18296;SDS011;18066;52.106;5.534;2022-10-13T17:51:01;30.35;;;22.35;;
18296;SDS011;18066;52.106;5.534;2022-10-13T17:53:56;35.70;;;22.27;;
18296;SDS011;18066;52.106;5.534;2022-10-13T18:33:59;25.87;;;19.70;;
18296;SDS011;18066;52.106;5.534;2022-10-13T18:40:17;25.33;;;19.15;;
18296;SDS011;18066;52.106;5.534;2022-10-13T18:43:12;23.00;;;18.52;;
18296;SDS011;18066;52.106;5.534;2022-10-13T18:59:37;27.70;;;19.97;;
18296;SDS011;18066;52.106;5.534;2022-10-13T19:02:55;25.20;;;19.63;;
18296;SDS011;18066;52.106;5.534;2022-10-13T19:05:56;24.90;;;18.58;;
18296;SDS011;18066;52.106;5.534;2022-10-13T20:00:54;14.47;;;10.90;;
18296;SDS011;18066;52.106;5.534;2022-10-13T20:04:20;15.13;;;10.37;;
18296;SDS011;18066;52.106;5.534;2022-10-13T20:07:19;14.27;;;10.83;;
18296;SDS011;18066;52.106;5.534;2022-10-13T20:10:10;14.83;;;10.53;;
18296;SDS011;18066;52.106;5.534;2022-10-13T20:13:29;14.93;;;10.70;;
18296;SDS011;18066;52.106;5.534;2022-10-13T20:16:11;17.00;;;10.80;;
18296;SDS011;18066;52.106;5.534;2022-10-13T20:18:54;21.67;;;11.80;;
18296;SDS011;18066;52.106;5.534;2022-10-13T20:21:27;17.90;;;11.77;;
18296;SDS011;18066;52.106;5.534;2022-10-13T20:26:48;17.70;;;11.67;;
18296;SDS011;18066;52.106;5.534;2022-10-13T20:29:25;15.87;;;11.60;;
18296;SDS011;18066;52.106;5.534;2022-10-13T20:32:09;21.77;;;11.60;;
18296;SDS011;18066;52.106;5.534;2022-10-13T20:34:42;19.47;;;13.13;;
18296;SDS011;18066;52.106;5.534;2022-10-13T20:37:16;15.67;;;10.87;;
18296;SDS011;18066;52.106;5.534;2022-10-13T20:39:49;17.77;;;11.37;;
18296;SDS011;18066;52.106;5.534;2022-10-13T20:42:35;16.00;;;10.50;;
18296;SDS011;18066;52.106;5.534;2022-10-13T20:45:16;14.50;;;12.07;;
18296;SDS011;18066;52.106;5.534;2022-10-13T20:47:48;14.50;;;10.27;;
18296;SDS011;18066;52.106;5.534;2022-10-13T20:50:27;13.80;;;9.90;;
18296;SDS011;18066;52.106;5.534;2022-10-13T20:53:05;15.50;;;10.90;;
18296;SDS011;18066;52.106;5.534;2022-10-13T20:58:35;13.03;;;9.03;;
18296;SDS011;18066;52.106;5.534;2022-10-13T21:01:26;15.20;;;10.17;;
18296;SDS011;18066;52.106;5.534;2022-10-13T21:07:05;19.23;;;13.07;;
18296;SDS011;18066;52.106;5.534;2022-10-13T21:09:42;22.23;;;13.80;;
18296;SDS011;18066;52.106;5.534;2022-10-13T21:12:55;25.73;;;14.77;;
18296;SDS011;18066;52.106;5.534;2022-10-13T21:15:09;25.93;;;15.33;;
18296;SDS011;18066;52.106;5.534;2022-10-13T21:17:43;32.13;;;17.60;;
18296;SDS011;18066;52.106;5.534;2022-10-13T21:20:22;33.30;;;17.87;;
18296;SDS011;18066;52.106;5.534;2022-10-13T21:22:54;35.23;;;17.67;;
18296;SDS011;18066;52.106;5.534;2022-10-13T21:25:45;36.60;;;18.20;;
18296;SDS011;18066;52.106;5.534;2022-10-13T21:28:20;35.47;;;19.57;;
18296;SDS011;18066;52.106;5.534;2022-10-13T21:31:05;38.77;;;19.60;;
18296;SDS011;18066;52.106;5.534;2022-10-13T21:33:43;42.37;;;20.10;;
18296;SDS011;18066;52.106;5.534;2022-10-13T21:36:20;42.10;;;20.87;;
18296;SDS011;18066;52.106;5.534;2022-10-13T21:39:17;42.33;;;20.37;;
18296;SDS011;18066;52.106;5.534;2022-10-13T21:41:57;42.53;;;21.27;;
18296;SDS011;18066;52.106;5.534;2022-10-13T21:44:31;52.83;;;23.30;;
18296;SDS011;18066;52.106;5.534;2022-10-13T21:47:03;48.50;;;22.33;;
18296;SDS011;18066;52.106;5.534;2022-10-13T21:49:40;49.03;;;23.20;;
18296;SDS011;18066;52.106;5.534;2022-10-13T21:52:22;53.07;;;24.13;;
18296;SDS011;18066;52.106;5.534;2022-10-13T21:54:52;49.00;;;24.50;;
18296;SDS011;18066;52.106;5.534;2022-10-13T21:57:22;56.23;;;24.73;;
18296;SDS011;18066;52.106;5.534;2022-10-13T22:00:14;54.13;;;25.87;;
18296;SDS011;18066;52.106;5.534;2022-10-13T22:03:18;57.93;;;25.60;;
18296;SDS011;18066;52.106;5.534;2022-10-13T22:05:48;49.40;;;23.40;;
18296;SDS011;18066;52.106;5.534;2022-10-13T22:08:24;48.30;;;23.40;;
18296;SDS011;18066;52.106;5.534;2022-10-13T22:11:19;49.30;;;24.03;;
18296;SDS011;18066;52.106;5.534;2022-10-13T22:14:01;49.07;;;24.43;;
18296;SDS011;18066;52.106;5.534;2022-10-13T22:16:44;44.70;;;23.13;;
18296;SDS011;18066;52.106;5.534;2022-10-13T22:19:16;43.40;;;22.17;;
18296;SDS011;18066;52.106;5.534;2022-10-13T22:21:49;47.60;;;22.20;;
18296;SDS011;18066;52.106;5.534;2022-10-13T22:27:46;41.60;;;21.43;;
18296;SDS011;18066;52.106;5.534;2022-10-13T22:33:14;43.40;;;21.90;;
18296;SDS011;18066;52.106;5.534;2022-10-13T22:35:45;44.43;;;22.30;;
18296;SDS011;18066;52.106;5.534;2022-10-13T22:38:21;41.03;;;21.67;;
18296;SDS011;18066;52.106;5.534;2022-10-13T22:41:07;37.37;;;20.30;;
18296;SDS011;18066;52.106;5.534;2022-10-13T22:43:51;36.23;;;19.63;;
18296;SDS011;18066;52.106;5.534;2022-10-13T22:46:30;36.97;;;19.97;;
18296;SDS011;18066;52.106;5.534;2022-10-13T22:49:24;34.97;;;19.67;;
18296;SDS011;18066;52.106;5.534;2022-10-13T22:54:55;34.87;;;19.03;;
18296;SDS011;18066;52.106;5.534;2022-10-13T22:57:41;28.73;;;17.80;;
18296;SDS011;18066;52.106;5.534;2022-10-13T23:00:24;33.63;;;18.43;;
18296;SDS011;18066;52.106;5.534;2022-10-13T23:03:17;34.40;;;19.13;;
18296;SDS011;18066;52.106;5.534;2022-10-13T23:05:48;36.87;;;19.47;;
18296;SDS011;18066;52.106;5.534;2022-10-13T23:08:40;35.27;;;18.23;;
18296;SDS011;18066;52.106;5.534;2022-10-13T23:11:30;51.40;;;18.97;;
18296;SDS011;18066;52.106;5.534;2022-10-13T23:14:05;30.30;;;18.50;;
18296;SDS011;18066;52.106;5.534;2022-10-13T23:20:11;29.60;;;17.97;;
18296;SDS011;18066;52.106;5.534;2022-10-13T23:25:24;24.77;;;15.87;;
18296;SDS011;18066;52.106;5.534;2022-10-13T23:28:32;26.07;;;15.73;;
18296;SDS011;18066;52.106;5.534;2022-10-13T23:31:31;26.40;;;15.17;;
18296;SDS011;18066;52.106;5.534;2022-10-13T23:37:20;26.97;;;15.63;;
18296;SDS011;18066;52.106;5.534;2022-10-13T23:40:23;26.27;;;15.17;;
18296;SDS011;18066;52.106;5.534;2022-10-13T23:43:02;25.43;;;15.63;;
18296;SDS011;18066;52.106;5.534;2022-10-13T23:45:53;25.47;;;15.50;;
18296;SDS011;18066;52.106;5.534;2022-10-13T23:48:36;24.43;;;14.73;;
18296;SDS011;18066;52.106;5.534;2022-10-13T23:51:19;28.83;;;15.77;;
18296;SDS011;18066;52.106;5.534;2022-10-13T23:54:17;26.20;;;14.97;;
18296;SDS011;18066;52.106;5.534;2022-10-13T23:57:32;29.60;;;16.73;;
18296;SDS011;18066;52.106;5.534;2022-10-13T23:59:54;33.67;;;17.30;;
